sensor_id;sensor_type;location;lat;lon;timestamp;P1;durP1;ratioP1;P2;durP2;ratioP2
16705;SDS011;8469;60.136;15.180;2022-12-01T00:01:00;2.67;;;2.00;;
16705;SDS011;8469;60.136;15.180;2022-12-01T00:03:31;2.93;;;2.20;;
16705;SDS011;8469;60.136;15.180;2022-12-01T00:05:58;2.35;;;2.10;;
16705;SDS011;8469;60.136;15.180;2022-12-01T00:08:26;3.15;;;2.50;;
16705;SDS011;8469;60.136;15.180;2022-12-01T00:10:54;2.30;;;2.10;;
16705;SDS011;8469;60.136;15.180;2022-12-01T00:13:21;2.65;;;2.37;;
16705;SDS011;8469;60.136;15.180;2022-12-01T00:15:48;3.85;;;2.37;;
16705;SDS011;8469;60.136;15.180;2022-12-01T00:18:16;3.33;;;2.62;;
16705;SDS011;8469;60.136;15.180;2022-12-01T00:20:43;3.30;;;2.50;;
16705;SDS011;8469;60.136;15.180;2022-12-01T00:23:10;3.67;;;2.42;;
16705;SDS011;8469;60.136;15.180;2022-12-01T00:25:37;3.25;;;2.35;;
16705;SDS011;8469;60.136;15.180;2022-12-01T00:28:05;2.87;;;2.60;;
16705;SDS011;8469;60.136;15.180;2022-12-01T00:30:32;2.50;;;2.30;;
16705;SDS011;8469;60.136;15.180;2022-12-01T00:32:59;4.10;;;2.60;;
16705;SDS011;8469;60.136;15.180;2022-12-01T00:35:27;2.50;;;2.30;;
16705;SDS011;8469;60.136;15.180;2022-12-01T00:37:54;4.20;;;2.80;;
16705;SDS011;8469;60.136;15.180;2022-12-01T00:40:21;2.80;;;2.50;;
16705;SDS011;8469;60.136;15.180;2022-12-01T00:42:48;4.35;;;2.50;;
16705;SDS011;8469;60.136;15.180;2022-12-01T00:45:16;2.87;;;2.50;;
16705;SDS011;8469;60.136;15.180;2022-12-01T00:47:43;3.80;;;2.50;;
16705;SDS011;8469;60.136;15.180;2022-12-01T00:50:10;2.62;;;2.40;;
16705;SDS011;8469;60.136;15.180;2022-12-01T00:52:38;2.33;;;2.12;;
16705;SDS011;8469;60.136;15.180;2022-12-01T00:55:06;2.50;;;2.20;;
16705;SDS011;8469;60.136;15.180;2022-12-01T00:57:33;2.47;;;2.27;;
16705;SDS011;8469;60.136;15.180;2022-12-01T01:00:00;2.17;;;2.00;;
16705;SDS011;8469;60.136;15.180;2022-12-01T01:02:28;2.45;;;2.25;;
16705;SDS011;8469;60.136;15.180;2022-12-01T01:04:55;2.40;;;2.20;;
16705;SDS011;8469;60.136;15.180;2022-12-01T01:07:22;2.40;;;2.20;;
16705;SDS011;8469;60.136;15.180;2022-12-01T01:09:50;1.90;;;1.80;;
16705;SDS011;8469;60.136;15.180;2022-12-01T01:12:17;2.33;;;2.00;;
16705;SDS011;8469;60.136;15.180;2022-12-01T01:14:44;2.40;;;2.10;;
16705;SDS011;8469;60.136;15.180;2022-12-01T01:17:11;2.33;;;1.90;;
16705;SDS011;8469;60.136;15.180;2022-12-01T01:19:39;2.40;;;2.20;;
16705;SDS011;8469;60.136;15.180;2022-12-01T01:22:06;2.45;;;2.25;;
16705;SDS011;8469;60.136;15.180;2022-12-01T01:24:33;3.77;;;2.12;;
16705;SDS011;8469;60.136;15.180;2022-12-01T01:27:01;2.80;;;2.17;;
16705;SDS011;8469;60.136;15.180;2022-12-01T01:29:28;2.40;;;2.10;;
16705;SDS011;8469;60.136;15.180;2022-12-01T01:31:55;2.65;;;2.45;;
16705;SDS011;8469;60.136;15.180;2022-12-01T01:34:23;2.50;;;2.30;;
16705;SDS011;8469;60.136;15.180;2022-12-01T01:36:50;3.37;;;2.50;;
16705;SDS011;8469;60.136;15.180;2022-12-01T01:39:17;11.88;;;5.97;;
16705;SDS011;8469;60.136;15.180;2022-12-01T01:41:45;2.60;;;2.22;;
16705;SDS011;8469;60.136;15.180;2022-12-01T01:46:57;3.12;;;2.60;;
16705;SDS011;8469;60.136;15.180;2022-12-01T01:49:24;4.10;;;2.37;;
16705;SDS011;8469;60.136;15.180;2022-12-01T01:51:52;2.65;;;2.45;;
16705;SDS011;8469;60.136;15.180;2022-12-01T01:54:21;2.60;;;2.40;;
16705;SDS011;8469;60.136;15.180;2022-12-01T01:56:50;2.43;;;2.20;;
16705;SDS011;8469;60.136;15.180;2022-12-01T01:59:21;3.55;;;2.62;;
16705;SDS011;8469;60.136;15.180;2022-12-01T02:01:47;2.90;;;2.60;;
16705;SDS011;8469;60.136;15.180;2022-12-01T02:04:15;3.00;;;2.52;;
16705;SDS011;8469;60.136;15.180;2022-12-01T02:06:43;2.70;;;2.50;;
16705;SDS011;8469;60.136;15.180;2022-12-01T02:09:10;3.65;;;2.83;;
16705;SDS011;8469;60.136;15.180;2022-12-01T02:11:50;4.17;;;2.62;;
16705;SDS011;8469;60.136;15.180;2022-12-01T02:14:38;3.42;;;2.58;;
16705;SDS011;8469;60.136;15.180;2022-12-01T02:20:02;2.87;;;2.57;;
16705;SDS011;8469;60.136;15.180;2022-12-01T02:22:47;3.22;;;2.55;;
16705;SDS011;8469;60.136;15.180;2022-12-01T02:27:51;4.42;;;2.62;;
16705;SDS011;8469;60.136;15.180;2022-12-01T02:30:13;3.98;;;2.50;;
16705;SDS011;8469;60.136;15.180;2022-12-01T02:32:46;3.72;;;2.80;;
16705;SDS011;8469;60.136;15.180;2022-12-01T02:40:29;3.80;;;2.85;;
16705;SDS011;8469;60.136;15.180;2022-12-01T02:43:02;62.30;;;20.85;;
16705;SDS011;8469;60.136;15.180;2022-12-01T02:45:35;82.70;;;26.70;;
16705;SDS011;8469;60.136;15.180;2022-12-01T02:48:03;10.65;;;5.33;;
16705;SDS011;8469;60.136;15.180;2022-12-01T02:50:31;4.22;;;2.80;;
16705;SDS011;8469;60.136;15.180;2022-12-01T02:53:00;3.95;;;2.55;;
16705;SDS011;8469;60.136;15.180;2022-12-01T02:55:28;3.65;;;2.70;;
16705;SDS011;8469;60.136;15.180;2022-12-01T02:57:55;3.45;;;2.77;;
16705;SDS011;8469;60.136;15.180;2022-12-01T03:00:23;3.83;;;2.42;;
16705;SDS011;8469;60.136;15.180;2022-12-01T03:03:00;3.00;;;2.70;;
16705;SDS011;8469;60.136;15.180;2022-12-01T03:05:32;3.58;;;2.62;;
16705;SDS011;8469;60.136;15.180;2022-12-01T03:08:13;4.33;;;2.98;;
16705;SDS011;8469;60.136;15.180;2022-12-01T03:10:42;3.83;;;2.60;;
16705;SDS011;8469;60.136;15.180;2022-12-01T03:13:18;3.12;;;2.72;;
16705;SDS011;8469;60.136;15.180;2022-12-01T03:15:47;3.35;;;2.80;;
16705;SDS011;8469;60.136;15.180;2022-12-01T03:20:45;3.20;;;2.63;;
16705;SDS011;8469;60.136;15.180;2022-12-01T03:23:17;3.70;;;2.83;;
16705;SDS011;8469;60.136;15.180;2022-12-01T03:25:42;5.33;;;2.83;;
16705;SDS011;8469;60.136;15.180;2022-12-01T03:28:10;4.22;;;3.20;;
16705;SDS011;8469;60.136;15.180;2022-12-01T03:30:38;4.87;;;3.15;;
16705;SDS011;8469;60.136;15.180;2022-12-01T03:33:14;3.50;;;3.00;;
16705;SDS011;8469;60.136;15.180;2022-12-01T03:35:40;4.85;;;3.30;;
16705;SDS011;8469;60.136;15.180;2022-12-01T03:38:09;4.40;;;3.12;;
16705;SDS011;8469;60.136;15.180;2022-12-01T03:40:36;3.58;;;2.95;;
16705;SDS011;8469;60.136;15.180;2022-12-01T03:43:08;3.95;;;2.92;;
16705;SDS011;8469;60.136;15.180;2022-12-01T03:45:39;4.28;;;3.35;;
16705;SDS011;8469;60.136;15.180;2022-12-01T03:48:05;4.30;;;3.40;;
16705;SDS011;8469;60.136;15.180;2022-12-01T03:50:37;4.20;;;3.22;;
16705;SDS011;8469;60.136;15.180;2022-12-01T03:53:06;4.42;;;3.12;;
16705;SDS011;8469;60.136;15.180;2022-12-01T03:55:35;5.08;;;3.30;;
16705;SDS011;8469;60.136;15.180;2022-12-01T03:58:13;7.05;;;3.47;;
16705;SDS011;8469;60.136;15.180;2022-12-01T04:00:41;7.25;;;3.25;;
16705;SDS011;8469;60.136;15.180;2022-12-01T04:03:14;5.63;;;3.00;;
16705;SDS011;8469;60.136;15.180;2022-12-01T04:05:37;4.53;;;3.00;;
16705;SDS011;8469;60.136;15.180;2022-12-01T04:08:05;7.33;;;3.52;;
16705;SDS011;8469;60.136;15.180;2022-12-01T04:10:32;5.92;;;3.35;;
16705;SDS011;8469;60.136;15.180;2022-12-01T04:12:59;7.12;;;3.72;;
16705;SDS011;8469;60.136;15.180;2022-12-01T04:15:27;12.43;;;4.10;;
16705;SDS011;8469;60.136;15.180;2022-12-01T04:17:54;10.43;;;4.03;;
16705;SDS011;8469;60.136;15.180;2022-12-01T04:20:21;18.00;;;4.35;;
16705;SDS011;8469;60.136;15.180;2022-12-01T04:22:49;8.50;;;4.10;;
16705;SDS011;8469;60.136;15.180;2022-12-01T04:25:16;20.62;;;4.30;;
16705;SDS011;8469;60.136;15.180;2022-12-01T04:27:43;11.97;;;4.25;;
16705;SDS011;8469;60.136;15.180;2022-12-01T04:30:11;10.68;;;4.05;;
16705;SDS011;8469;60.136;15.180;2022-12-01T04:32:39;18.65;;;4.70;;
16705;SDS011;8469;60.136;15.180;2022-12-01T04:35:07;16.17;;;4.50;;
16705;SDS011;8469;60.136;15.180;2022-12-01T04:37:34;13.95;;;4.05;;
16705;SDS011;8469;60.136;15.180;2022-12-01T04:40:02;12.20;;;4.20;;
16705;SDS011;8469;60.136;15.180;2022-12-01T04:42:30;8.58;;;3.87;;
16705;SDS011;8469;60.136;15.180;2022-12-01T04:44:57;17.35;;;4.70;;
16705;SDS011;8469;60.136;15.180;2022-12-01T04:47:24;14.58;;;4.58;;
16705;SDS011;8469;60.136;15.180;2022-12-01T04:49:52;7.50;;;3.72;;
16705;SDS011;8469;60.136;15.180;2022-12-01T04:52:19;7.33;;;3.58;;
16705;SDS011;8469;60.136;15.180;2022-12-01T04:54:47;4.30;;;3.20;;
16705;SDS011;8469;60.136;15.180;2022-12-01T04:57:14;19.92;;;3.87;;
16705;SDS011;8469;60.136;15.180;2022-12-01T04:59:41;7.53;;;3.58;;
16705;SDS011;8469;60.136;15.180;2022-12-01T05:02:08;8.60;;;3.67;;
16705;SDS011;8469;60.136;15.180;2022-12-01T05:04:36;6.08;;;3.33;;
16705;SDS011;8469;60.136;15.180;2022-12-01T05:07:03;8.98;;;3.40;;
16705;SDS011;8469;60.136;15.180;2022-12-01T05:09:31;7.17;;;3.25;;
16705;SDS011;8469;60.136;15.180;2022-12-01T05:11:58;4.78;;;3.30;;
16705;SDS011;8469;60.136;15.180;2022-12-01T05:14:25;5.33;;;3.10;;
16705;SDS011;8469;60.136;15.180;2022-12-01T05:16:53;12.80;;;3.10;;
16705;SDS011;8469;60.136;15.180;2022-12-01T05:19:21;7.55;;;3.10;;
16705;SDS011;8469;60.136;15.180;2022-12-01T05:22:06;8.38;;;3.45;;
16705;SDS011;8469;60.136;15.180;2022-12-01T05:24:33;6.45;;;3.20;;
16705;SDS011;8469;60.136;15.180;2022-12-01T05:27:01;14.93;;;3.90;;
16705;SDS011;8469;60.136;15.180;2022-12-01T05:29:28;8.48;;;3.65;;
16705;SDS011;8469;60.136;15.180;2022-12-01T05:31:57;23.57;;;4.33;;
16705;SDS011;8469;60.136;15.180;2022-12-01T05:34:24;7.72;;;4.33;;
16705;SDS011;8469;60.136;15.180;2022-12-01T05:36:51;8.63;;;4.22;;
16705;SDS011;8469;60.136;15.180;2022-12-01T05:39:19;44.00;;;4.72;;
16705;SDS011;8469;60.136;15.180;2022-12-01T05:41:45;39.83;;;5.10;;
16705;SDS011;8469;60.136;15.180;2022-12-01T05:44:13;9.08;;;4.20;;
16705;SDS011;8469;60.136;15.180;2022-12-01T05:46:41;5.72;;;3.70;;
16705;SDS011;8469;60.136;15.180;2022-12-01T05:49:08;31.95;;;5.50;;
16705;SDS011;8469;60.136;15.180;2022-12-01T05:51:36;90.32;;;5.78;;
16705;SDS011;8469;60.136;15.180;2022-12-01T05:54:03;26.35;;;4.60;;
16705;SDS011;8469;60.136;15.180;2022-12-01T05:56:30;9.25;;;4.10;;
16705;SDS011;8469;60.136;15.180;2022-12-01T05:58:58;44.75;;;5.75;;
16705;SDS011;8469;60.136;15.180;2022-12-01T06:01:25;12.93;;;4.70;;
16705;SDS011;8469;60.136;15.180;2022-12-01T06:03:52;34.13;;;4.12;;
16705;SDS011;8469;60.136;15.180;2022-12-01T06:06:20;26.23;;;4.17;;
16705;SDS011;8469;60.136;15.180;2022-12-01T06:08:47;23.70;;;4.60;;
16705;SDS011;8469;60.136;15.180;2022-12-01T06:11:14;17.02;;;3.90;;
16705;SDS011;8469;60.136;15.180;2022-12-01T06:13:41;8.33;;;3.10;;
16705;SDS011;8469;60.136;15.180;2022-12-01T06:16:09;6.50;;;3.37;;
16705;SDS011;8469;60.136;15.180;2022-12-01T06:18:36;15.78;;;3.95;;
16705;SDS011;8469;60.136;15.180;2022-12-01T06:21:04;15.68;;;3.60;;
16705;SDS011;8469;60.136;15.180;2022-12-01T06:23:32;11.28;;;3.40;;
16705;SDS011;8469;60.136;15.180;2022-12-01T06:25:58;18.87;;;3.90;;
16705;SDS011;8469;60.136;15.180;2022-12-01T06:28:27;15.48;;;4.20;;
16705;SDS011;8469;60.136;15.180;2022-12-01T06:30:54;16.20;;;4.10;;
16705;SDS011;8469;60.136;15.180;2022-12-01T06:33:21;29.27;;;4.55;;
16705;SDS011;8469;60.136;15.180;2022-12-01T06:35:55;8.78;;;3.83;;
16705;SDS011;8469;60.136;15.180;2022-12-01T06:38:17;7.55;;;3.92;;
16705;SDS011;8469;60.136;15.180;2022-12-01T06:40:44;69.97;;;5.05;;
16705;SDS011;8469;60.136;15.180;2022-12-01T06:43:12;175.65;;;6.50;;
16705;SDS011;8469;60.136;15.180;2022-12-01T06:45:38;180.20;;;7.30;;
16705;SDS011;8469;60.136;15.180;2022-12-01T06:48:07;133.78;;;7.45;;
16705;SDS011;8469;60.136;15.180;2022-12-01T06:50:34;40.43;;;5.53;;
16705;SDS011;8469;60.136;15.180;2022-12-01T06:53:02;223.40;;;7.83;;
16705;SDS011;8469;60.136;15.180;2022-12-01T06:55:29;82.63;;;5.37;;
16705;SDS011;8469;60.136;15.180;2022-12-01T06:57:59;121.77;;;5.42;;
16705;SDS011;8469;60.136;15.180;2022-12-01T07:00:27;18.93;;;3.63;;
16705;SDS011;8469;60.136;15.180;2022-12-01T07:02:53;204.05;;;7.05;;
16705;SDS011;8469;60.136;15.180;2022-12-01T07:05:22;185.03;;;6.62;;
16705;SDS011;8469;60.136;15.180;2022-12-01T07:07:49;160.45;;;6.58;;
16705;SDS011;8469;60.136;15.180;2022-12-01T07:10:16;206.20;;;7.45;;
16705;SDS011;8469;60.136;15.180;2022-12-01T07:12:44;164.10;;;6.45;;
16705;SDS011;8469;60.136;15.180;2022-12-01T07:15:11;103.62;;;5.75;;
16705;SDS011;8469;60.136;15.180;2022-12-01T07:17:38;75.40;;;5.10;;
16705;SDS011;8469;60.136;15.180;2022-12-01T07:20:06;53.45;;;5.28;;
16705;SDS011;8469;60.136;15.180;2022-12-01T07:22:35;34.05;;;10.25;;
16705;SDS011;8469;60.136;15.180;2022-12-01T07:25:04;9.35;;;4.40;;
16705;SDS011;8469;60.136;15.180;2022-12-01T07:27:31;9.68;;;3.05;;
16705;SDS011;8469;60.136;15.180;2022-12-01T07:29:58;3.52;;;2.37;;
16705;SDS011;8469;60.136;15.180;2022-12-01T07:32:26;6.37;;;3.30;;
16705;SDS011;8469;60.136;15.180;2022-12-01T07:34:53;6.90;;;2.90;;
16705;SDS011;8469;60.136;15.180;2022-12-01T07:37:20;6.12;;;2.22;;
16705;SDS011;8469;60.136;15.180;2022-12-01T07:39:48;6.20;;;2.70;;
16705;SDS011;8469;60.136;15.180;2022-12-01T07:42:15;7.78;;;2.70;;
16705;SDS011;8469;60.136;15.180;2022-12-01T07:44:47;2.90;;;2.30;;
16705;SDS011;8469;60.136;15.180;2022-12-01T07:47:13;3.60;;;2.45;;
16705;SDS011;8469;60.136;15.180;2022-12-01T07:49:40;2.92;;;2.50;;
16705;SDS011;8469;60.136;15.180;2022-12-01T07:52:07;5.03;;;2.50;;
16705;SDS011;8469;60.136;15.180;2022-12-01T07:54:34;3.10;;;2.37;;
16705;SDS011;8469;60.136;15.180;2022-12-01T07:57:02;3.77;;;2.90;;
16705;SDS011;8469;60.136;15.180;2022-12-01T07:59:29;4.47;;;2.50;;
16705;SDS011;8469;60.136;15.180;2022-12-01T08:01:56;4.22;;;2.70;;
16705;SDS011;8469;60.136;15.180;2022-12-01T08:04:24;3.97;;;2.50;;
16705;SDS011;8469;60.136;15.180;2022-12-01T08:06:51;4.53;;;2.80;;
16705;SDS011;8469;60.136;15.180;2022-12-01T08:09:18;3.00;;;2.40;;
16705;SDS011;8469;60.136;15.180;2022-12-01T08:11:46;4.67;;;2.60;;
16705;SDS011;8469;60.136;15.180;2022-12-01T08:14:13;3.60;;;2.90;;
16705;SDS011;8469;60.136;15.180;2022-12-01T08:16:40;3.90;;;2.90;;
16705;SDS011;8469;60.136;15.180;2022-12-01T08:19:10;3.05;;;2.70;;
16705;SDS011;8469;60.136;15.180;2022-12-01T08:21:38;4.13;;;2.70;;
16705;SDS011;8469;60.136;15.180;2022-12-01T08:24:05;3.42;;;2.98;;
16705;SDS011;8469;60.136;15.180;2022-12-01T08:26:33;4.53;;;2.70;;
16705;SDS011;8469;60.136;15.180;2022-12-01T08:29:00;5.70;;;2.62;;
16705;SDS011;8469;60.136;15.180;2022-12-01T08:31:28;4.25;;;2.65;;
16705;SDS011;8469;60.136;15.180;2022-12-01T08:33:56;3.67;;;2.60;;
16705;SDS011;8469;60.136;15.180;2022-12-01T08:36:29;4.75;;;2.87;;
16705;SDS011;8469;60.136;15.180;2022-12-01T08:41:00;4.30;;;2.47;;
16705;SDS011;8469;60.136;15.180;2022-12-01T08:43:27;5.40;;;2.67;;
16705;SDS011;8469;60.136;15.180;2022-12-01T08:45:58;4.08;;;2.70;;
16705;SDS011;8469;60.136;15.180;2022-12-01T08:48:26;5.95;;;3.00;;
16705;SDS011;8469;60.136;15.180;2022-12-01T08:51:06;6.17;;;3.30;;
16705;SDS011;8469;60.136;15.180;2022-12-01T08:53:34;3.33;;;2.75;;
16705;SDS011;8469;60.136;15.180;2022-12-01T08:56:02;4.95;;;3.20;;
16705;SDS011;8469;60.136;15.180;2022-12-01T08:58:30;4.05;;;2.75;;
16705;SDS011;8469;60.136;15.180;2022-12-01T09:01:01;4.50;;;2.90;;
16705;SDS011;8469;60.136;15.180;2022-12-01T09:03:29;4.12;;;2.60;;
16705;SDS011;8469;60.136;15.180;2022-12-01T09:06:06;2.40;;;2.20;;
16705;SDS011;8469;60.136;15.180;2022-12-01T09:08:34;2.92;;;2.27;;
16705;SDS011;8469;60.136;15.180;2022-12-01T09:11:03;2.60;;;2.40;;
16705;SDS011;8469;60.136;15.180;2022-12-01T09:13:31;2.35;;;2.15;;
16705;SDS011;8469;60.136;15.180;2022-12-01T09:16:00;2.12;;;1.87;;
16705;SDS011;8469;60.136;15.180;2022-12-01T09:18:27;1.87;;;1.77;;
16705;SDS011;8469;60.136;15.180;2022-12-01T09:20:56;13.97;;;5.60;;
16705;SDS011;8469;60.136;15.180;2022-12-01T09:23:25;2.05;;;1.92;;
16705;SDS011;8469;60.136;15.180;2022-12-01T09:25:53;1.92;;;1.82;;
16705;SDS011;8469;60.136;15.180;2022-12-01T09:28:20;2.27;;;1.80;;
16705;SDS011;8469;60.136;15.180;2022-12-01T09:30:47;2.30;;;1.90;;
16705;SDS011;8469;60.136;15.180;2022-12-01T09:33:15;2.50;;;1.90;;
16705;SDS011;8469;60.136;15.180;2022-12-01T09:35:42;1.90;;;1.80;;
16705;SDS011;8469;60.136;15.180;2022-12-01T09:38:09;1.75;;;1.62;;
16705;SDS011;8469;60.136;15.180;2022-12-01T09:40:38;2.05;;;1.85;;
16705;SDS011;8469;60.136;15.180;2022-12-01T09:43:10;1.90;;;1.70;;
16705;SDS011;8469;60.136;15.180;2022-12-01T09:45:35;1.70;;;1.60;;
16705;SDS011;8469;60.136;15.180;2022-12-01T09:48:04;2.17;;;1.98;;
16705;SDS011;8469;60.136;15.180;2022-12-01T09:50:32;1.80;;;1.70;;
16705;SDS011;8469;60.136;15.180;2022-12-01T09:53:02;2.75;;;2.30;;
16705;SDS011;8469;60.136;15.180;2022-12-01T09:55:29;2.37;;;2.02;;
16705;SDS011;8469;60.136;15.180;2022-12-01T09:57:58;2.17;;;1.98;;
16705;SDS011;8469;60.136;15.180;2022-12-01T10:00:30;1.67;;;1.57;;
16705;SDS011;8469;60.136;15.180;2022-12-01T10:05:28;1.80;;;1.70;;
16705;SDS011;8469;60.136;15.180;2022-12-01T10:08:00;1.80;;;1.70;;
16705;SDS011;8469;60.136;15.180;2022-12-01T10:10:47;1.70;;;1.60;;
16705;SDS011;8469;60.136;15.180;2022-12-01T10:13:22;1.92;;;1.70;;
16705;SDS011;8469;60.136;15.180;2022-12-01T10:18:32;1.70;;;1.60;;
16705;SDS011;8469;60.136;15.180;2022-12-01T10:21:02;2.02;;;1.92;;
16705;SDS011;8469;60.136;15.180;2022-12-01T10:26:13;3.52;;;2.30;;
16705;SDS011;8469;60.136;15.180;2022-12-01T10:31:17;1.70;;;1.60;;
16705;SDS011;8469;60.136;15.180;2022-12-01T10:34:31;1.62;;;1.52;;
16705;SDS011;8469;60.136;15.180;2022-12-01T10:36:11;1.65;;;1.55;;
16705;SDS011;8469;60.136;15.180;2022-12-01T10:38:38;1.72;;;1.62;;
16705;SDS011;8469;60.136;15.180;2022-12-01T10:41:07;1.70;;;1.60;;
16705;SDS011;8469;60.136;15.180;2022-12-01T10:43:38;1.55;;;1.45;;
16705;SDS011;8469;60.136;15.180;2022-12-01T10:49:33;1.95;;;1.72;;
16705;SDS011;8469;60.136;15.180;2022-12-01T10:51:15;1.90;;;1.80;;
16705;SDS011;8469;60.136;15.180;2022-12-01T10:53:45;3.02;;;1.90;;
16705;SDS011;8469;60.136;15.180;2022-12-01T10:56:17;2.47;;;1.90;;
16705;SDS011;8469;60.136;15.180;2022-12-01T10:58:55;2.20;;;2.00;;
16705;SDS011;8469;60.136;15.180;2022-12-01T11:01:19;1.95;;;1.70;;
16705;SDS011;8469;60.136;15.180;2022-12-01T11:03:48;3.33;;;2.15;;
16705;SDS011;8469;60.136;15.180;2022-12-01T11:06:15;2.03;;;1.83;;
16705;SDS011;8469;60.136;15.180;2022-12-01T11:08:44;3.50;;;2.20;;
16705;SDS011;8469;60.136;15.180;2022-12-01T11:11:25;3.12;;;2.45;;
16705;SDS011;8469;60.136;15.180;2022-12-01T11:13:53;1.90;;;1.80;;
16705;SDS011;8469;60.136;15.180;2022-12-01T11:16:41;2.00;;;1.80;;
16705;SDS011;8469;60.136;15.180;2022-12-01T11:21:50;2.20;;;2.00;;
16705;SDS011;8469;60.136;15.180;2022-12-01T11:27:10;24.03;;;10.07;;
16705;SDS011;8469;60.136;15.180;2022-12-01T11:29:34;1.92;;;1.82;;
16705;SDS011;8469;60.136;15.180;2022-12-01T11:32:13;2.05;;;1.90;;
16705;SDS011;8469;60.136;15.180;2022-12-01T11:34:31;1.83;;;1.63;;
16705;SDS011;8469;60.136;15.180;2022-12-01T11:37:00;2.62;;;1.50;;
16705;SDS011;8469;60.136;15.180;2022-12-01T11:39:36;1.70;;;1.60;;
16705;SDS011;8469;60.136;15.180;2022-12-01T11:42:04;1.65;;;1.52;;
16705;SDS011;8469;60.136;15.180;2022-12-01T11:44:32;1.47;;;1.37;;
16705;SDS011;8469;60.136;15.180;2022-12-01T11:47:13;1.65;;;1.55;;
16705;SDS011;8469;60.136;15.180;2022-12-01T11:49:42;1.75;;;1.65;;
16705;SDS011;8469;60.136;15.180;2022-12-01T11:52:26;1.77;;;1.67;;
16705;SDS011;8469;60.136;15.180;2022-12-01T11:55:29;1.60;;;1.50;;
16705;SDS011;8469;60.136;15.180;2022-12-01T11:57:30;2.00;;;1.80;;
16705;SDS011;8469;60.136;15.180;2022-12-01T11:59:57;2.00;;;1.80;;
16705;SDS011;8469;60.136;15.180;2022-12-01T12:02:43;2.12;;;2.00;;
16705;SDS011;8469;60.136;15.180;2022-12-01T12:10:28;1.80;;;1.70;;
16705;SDS011;8469;60.136;15.180;2022-12-01T12:13:00;2.20;;;1.73;;
16705;SDS011;8469;60.136;15.180;2022-12-01T12:26:08;2.52;;;2.17;;
16705;SDS011;8469;60.136;15.180;2022-12-01T12:28:44;1.90;;;1.70;;
16705;SDS011;8469;60.136;15.180;2022-12-01T12:36:35;2.00;;;1.80;;
16705;SDS011;8469;60.136;15.180;2022-12-01T12:39:02;3.92;;;2.30;;
16705;SDS011;8469;60.136;15.180;2022-12-01T12:41:41;2.60;;;2.40;;
16705;SDS011;8469;60.136;15.180;2022-12-01T12:47:04;2.35;;;2.15;;
16705;SDS011;8469;60.136;15.180;2022-12-01T12:52:12;2.95;;;2.72;;
16705;SDS011;8469;60.136;15.180;2022-12-01T12:54:56;3.12;;;2.65;;
16705;SDS011;8469;60.136;15.180;2022-12-01T12:57:28;2.65;;;2.45;;
16705;SDS011;8469;60.136;15.180;2022-12-01T12:59:59;3.35;;;2.70;;
16705;SDS011;8469;60.136;15.180;2022-12-01T13:02:40;2.12;;;2.00;;
16705;SDS011;8469;60.136;15.180;2022-12-01T13:07:51;2.85;;;2.55;;
16705;SDS011;8469;60.136;15.180;2022-12-01T13:10:23;2.55;;;2.35;;
16705;SDS011;8469;60.136;15.180;2022-12-01T13:12:57;3.37;;;2.77;;
16705;SDS011;8469;60.136;15.180;2022-12-01T13:15:24;3.10;;;2.50;;
16705;SDS011;8469;60.136;15.180;2022-12-01T13:18:01;2.70;;;2.50;;
16705;SDS011;8469;60.136;15.180;2022-12-01T13:20:26;2.80;;;2.50;;
16705;SDS011;8469;60.136;15.180;2022-12-01T13:22:55;2.98;;;2.62;;
16705;SDS011;8469;60.136;15.180;2022-12-01T13:25:28;2.90;;;2.60;;
16705;SDS011;8469;60.136;15.180;2022-12-01T13:27:52;2.77;;;2.45;;
16705;SDS011;8469;60.136;15.180;2022-12-01T13:30:21;4.50;;;2.83;;
16705;SDS011;8469;60.136;15.180;2022-12-01T13:32:49;4.37;;;2.87;;
16705;SDS011;8469;60.136;15.180;2022-12-01T13:37:46;3.08;;;2.58;;
16705;SDS011;8469;60.136;15.180;2022-12-01T13:40:24;3.22;;;2.40;;
16705;SDS011;8469;60.136;15.180;2022-12-01T13:42:58;3.10;;;2.33;;
16705;SDS011;8469;60.136;15.180;2022-12-01T13:45:31;3.17;;;2.42;;
16705;SDS011;8469;60.136;15.180;2022-12-01T13:47:58;2.87;;;2.60;;
16705;SDS011;8469;60.136;15.180;2022-12-01T13:58:47;2.65;;;2.45;;
16705;SDS011;8469;60.136;15.180;2022-12-01T14:06:37;2.60;;;2.30;;
16705;SDS011;8469;60.136;15.180;2022-12-01T14:09:18;3.00;;;2.22;;
16705;SDS011;8469;60.136;15.180;2022-12-01T14:11:35;3.17;;;2.15;;
16705;SDS011;8469;60.136;15.180;2022-12-01T14:14:16;2.72;;;2.20;;
16705;SDS011;8469;60.136;15.180;2022-12-01T14:16:47;2.50;;;2.13;;
16705;SDS011;8469;60.136;15.180;2022-12-01T14:19:26;2.50;;;1.87;;
16705;SDS011;8469;60.136;15.180;2022-12-01T14:21:53;2.70;;;1.87;;
16705;SDS011;8469;60.136;15.180;2022-12-01T14:24:24;1.70;;;1.60;;
16705;SDS011;8469;60.136;15.180;2022-12-01T14:26:53;1.87;;;1.70;;
16705;SDS011;8469;60.136;15.180;2022-12-01T14:29:28;2.08;;;1.87;;
16705;SDS011;8469;60.136;15.180;2022-12-01T14:34:30;1.80;;;1.70;;
16705;SDS011;8469;60.136;15.180;2022-12-01T14:37:04;2.15;;;1.75;;
16705;SDS011;8469;60.136;15.180;2022-12-01T14:39:33;2.02;;;1.85;;
16705;SDS011;8469;60.136;15.180;2022-12-01T14:44:43;1.90;;;1.80;;
16705;SDS011;8469;60.136;15.180;2022-12-01T14:47:11;2.17;;;1.95;;
16705;SDS011;8469;60.136;15.180;2022-12-01T14:52:19;2.40;;;1.85;;
16705;SDS011;8469;60.136;15.180;2022-12-01T14:54:45;2.65;;;2.15;;
16705;SDS011;8469;60.136;15.180;2022-12-01T14:57:17;2.12;;;2.02;;
16705;SDS011;8469;60.136;15.180;2022-12-01T15:00:00;2.10;;;1.87;;
16705;SDS011;8469;60.136;15.180;2022-12-01T15:02:17;2.17;;;1.80;;
16705;SDS011;8469;60.136;15.180;2022-12-01T15:07:39;2.12;;;1.92;;
16705;SDS011;8469;60.136;15.180;2022-12-01T15:10:26;4.17;;;2.90;;
16705;SDS011;8469;60.136;15.180;2022-12-01T15:12:38;3.12;;;2.70;;
16705;SDS011;8469;60.136;15.180;2022-12-01T15:15:13;2.42;;;2.10;;
16705;SDS011;8469;60.136;15.180;2022-12-01T15:17:34;2.85;;;2.55;;
16705;SDS011;8469;60.136;15.180;2022-12-01T15:20:03;2.45;;;2.20;;
16705;SDS011;8469;60.136;15.180;2022-12-01T15:22:30;2.40;;;2.20;;
16705;SDS011;8469;60.136;15.180;2022-12-01T15:25:12;1.90;;;1.80;;
16705;SDS011;8469;60.136;15.180;2022-12-01T15:27:34;1.90;;;1.80;;
16705;SDS011;8469;60.136;15.180;2022-12-01T15:30:01;2.73;;;2.43;;
16705;SDS011;8469;60.136;15.180;2022-12-01T15:32:29;2.40;;;2.20;;
16705;SDS011;8469;60.136;15.180;2022-12-01T15:34:57;3.67;;;2.47;;
16705;SDS011;8469;60.136;15.180;2022-12-01T15:37:38;3.60;;;2.17;;
16705;SDS011;8469;60.136;15.180;2022-12-01T15:39:59;3.20;;;2.40;;
16705;SDS011;8469;60.136;15.180;2022-12-01T15:42:30;4.80;;;2.50;;
16705;SDS011;8469;60.136;15.180;2022-12-01T15:44:59;4.35;;;2.52;;
16705;SDS011;8469;60.136;15.180;2022-12-01T15:50:03;2.75;;;2.25;;
16705;SDS011;8469;60.136;15.180;2022-12-01T15:52:30;2.08;;;1.95;;
16705;SDS011;8469;60.136;15.180;2022-12-01T15:54:59;2.33;;;2.00;;
16705;SDS011;8469;60.136;15.180;2022-12-01T15:57:27;4.53;;;2.00;;
16705;SDS011;8469;60.136;15.180;2022-12-01T15:59:55;4.62;;;2.75;;
16705;SDS011;8469;60.136;15.180;2022-12-01T16:02:27;3.75;;;3.10;;
16705;SDS011;8469;60.136;15.180;2022-12-01T16:07:34;3.52;;;2.70;;
16705;SDS011;8469;60.136;15.180;2022-12-01T16:10:02;3.02;;;2.80;;
16705;SDS011;8469;60.136;15.180;2022-12-01T16:12:30;3.25;;;2.95;;
16705;SDS011;8469;60.136;15.180;2022-12-01T16:17:41;2.98;;;2.67;;
16705;SDS011;8469;60.136;15.180;2022-12-01T16:20:24;3.20;;;2.90;;
16705;SDS011;8469;60.136;15.180;2022-12-01T16:23:03;28.85;;;15.58;;
16705;SDS011;8469;60.136;15.180;2022-12-01T16:25:35;17.25;;;9.50;;
16705;SDS011;8469;60.136;15.180;2022-12-01T16:28:04;11.12;;;7.10;;
16705;SDS011;8469;60.136;15.180;2022-12-01T16:30:39;5.30;;;3.70;;
16705;SDS011;8469;60.136;15.180;2022-12-01T16:33:22;6.35;;;4.65;;
16705;SDS011;8469;60.136;15.180;2022-12-01T16:35:35;4.80;;;3.87;;
16705;SDS011;8469;60.136;15.180;2022-12-01T16:38:18;6.15;;;3.30;;